Time;durP1;ratioP1;P1;durP2;ratioP2;P2;SDS_P1;SDS_P2;PMS_P1;PMS_P2;Temp;Humidity;BMP_temperature;BMP_pressure;BME280_temperature;BME280_humidity;BME280_pressure;Samples;Min_cycle;Max_cycle;Signal;HPM_P1;HPM_P2
2021/07/18 08:42:56;;;;;;;0;0;;;;;;;0;0;0;;;;
2021/07/18 08:43:57;;;;;;;0;0;;;;;;;0;0;0;;;;
2021/07/18 08:44:58;;;;;;;0;0;;;;;;;0;0;0;;;;
2021/07/18 08:45:59;;;;;;;0;0;;;;;;;0;0;0;;;;
2021/07/18 08:47:00;;;;;;;0;0;;;;;;;0;0;0;;;;
2021/07/18 08:48:00;;;;;;;0;0;;;;;;;0;0;0;;;;
2021/07/18 08:49:01;;;;;;;0;0;;;;;;;0;0;0;;;;
2021/07/18 08:50:02;;;;;;;0;0;;;;;;;0;0;0;;;;
2021/07/18 08:51:04;;;;;;;0;0;;;;;;;0;0;0;;;;
2021/07/18 08:52:04;;;;;;;0;0;;;;;;;0;0;0;;;;
2021/07/18 08:53:06;;;;;;;0;0;;;;;;;0;0;0;;;;
2021/07/18 08:54:06;;;;;;;0;0;;;;;;;0;0;0;;;;
2021/07/18 08:55:07;;;;;;;0;0;;;;;;;0;0;0;;;;
2021/07/18 08:56:08;;;;;;;0;0;;;;;;;0;0;0;;;;
2021/07/18 08:57:09;;;;;;;0;0;;;;;;;0;0;0;;;;
2021/07/18 08:58:11;;;;;;;0;0;;;;;;;0;0;0;;;;
2021/07/18 08:59:12;;;;;;;0;0;;;;;;;0;0;0;;;;
2021/07/18 09:00:12;;;;;;;0;0;;;;;;;0;0;0;;;;
2021/07/18 09:01:14;;;;;;;0;0;;;;;;;0;0;0;;;;
2021/07/18 09:02:14;;;;;;;0;0;;;;;;;0;0;0;;;;
2021/07/18 09:03:16;;;;;;;0;0;;;;;;;0;0;0;;;;
2021/07/18 09:04:17;;;;;;;0;0;;;;;;;0;0;0;;;;
2021/07/18 09:05:18;;;;;;;0;0;;;;;;;0;0;0;;;;
2021/07/18 09:06:18;;;;;;;0;0;;;;;;;0;0;0;;;;
2021/07/18 09:07:19;;;;;;;0;0;;;;;;;0;0;0;;;;
2021/07/18 09:08:20;;;;;;;0;0;;;;;;;0;0;0;;;;
2021/07/18 09:09:21;;;;;;;0;0;;;;;;;0;0;0;;;;
2021/07/18 09:10:23;;;;;;;0;0;;;;;;;0;0;0;;;;
2021/07/18 09:11:26;;;;;;;0;0;;;;;;;0;0;0;;;;
2021/07/18 09:12:26;;;;;;;0;0;;;;;;;0;0;0;;;;
2021/07/18 09:13:27;;;;;;;1;0.9;;;;;;;19.97;100;95594.09;;;;
2021/07/18 09:14:27;;;;;;;1;0.9;;;;;;;19.97;100;95594.09;;;;
2021/07/18 09:15:31;;;;;;;1;0.9;;;;;;;19.97;100;95594.09;;;;
2021/07/18 09:16:49;;;;;;;1;0.9;;;;;;;19.97;100;95594.09;;;;
2021/07/18 09:17:51;;;;;;;1;0.9;;;;;;;19.97;100;95594.09;;;;
2021/07/18 09:19:07;;;;;;;1;0.9;;;;;;;19.97;100;95594.09;;;;
2021/07/18 09:20:19;;;;;;;1;0.9;;;;;;;19.97;100;95594.09;;;;
2021/07/18 09:21:20;;;;;;;1;0.9;;;;;;;19.97;100;95594.09;;;;
2021/07/18 09:22:21;;;;;;;1;0.9;;;;;;;19.97;100;95594.09;;;;
2021/07/18 09:23:24;;;;;;;1.2;1.1;;;;;;;20.11;100;95589.74;;;;
2021/07/18 09:24:27;;;;;;;1.2;1.1;;;;;;;20.11;100;95589.74;;;;
2021/07/18 09:25:29;;;;;;;1.2;1.1;;;;;;;20.11;100;95589.74;;;;
2021/07/18 09:26:30;;;;;;;1.2;1.1;;;;;;;20.11;100;95589.74;;;;
2021/07/18 09:27:30;;;;;;;1.2;1.1;;;;;;;20.11;100;95589.74;;;;
2021/07/18 09:28:33;;;;;;;1.2;1.1;;;;;;;20.11;100;95589.74;;;;
2021/07/18 09:29:33;;;;;;;1.2;1.1;;;;;;;20.11;100;95589.74;;;;
2021/07/18 09:30:36;;;;;;;1.2;1.1;;;;;;;20.11;100;95589.74;;;;
2021/07/18 09:31:38;;;;;;;1.2;1.1;;;;;;;20.11;100;95589.74;;;;
2021/07/18 09:32:38;;;;;;;1.2;1.1;;;;;;;20.11;100;95589.74;;;;
2021/07/18 09:33:40;;;;;;;1.2;1.1;;;;;;;20.11;100;95589.74;;;;
2021/07/18 09:34:41;;;;;;;1.7;1.4;;;;;;;20.21;100;95598.85;;;;
2021/07/18 09:35:43;;;;;;;1.7;1.4;;;;;;;20.21;100;95598.85;;;;
2021/07/18 09:36:43;;;;;;;1.7;1.4;;;;;;;20.21;100;95598.85;;;;
2021/07/18 09:37:44;;;;;;;1.7;1.4;;;;;;;20.21;100;95598.85;;;;
2021/07/18 09:38:47;;;;;;;1.7;1.4;;;;;;;20.21;100;95598.85;;;;
2021/07/18 09:40:03;;;;;;;1.7;1.4;;;;;;;20.21;100;95598.85;;;;
2021/07/18 09:41:08;;;;;;;1.7;1.4;;;;;;;20.21;100;95598.85;;;;
2021/07/18 09:42:16;;;;;;;1.7;1.4;;;;;;;20.21;100;95598.85;;;;
2021/07/18 09:43:36;;;;;;;1.7;1.4;;;;;;;20.21;100;95598.85;;;;
2021/07/18 09:44:36;;;;;;;1.7;1.4;;;;;;;20.21;100;95598.85;;;;
2021/07/18 09:45:42;;;;;;;1.55;1.45;;;;;;;20.23;100;95602;;;;
2021/07/18 09:46:55;;;;;;;1.55;1.45;;;;;;;20.23;100;95602;;;;
2021/07/18 09:48:01;;;;;;;1.55;1.45;;;;;;;20.23;100;95602;;;;
2021/07/18 09:49:04;;;;;;;1.55;1.45;;;;;;;20.23;100;95602;;;;
2021/07/18 09:50:05;;;;;;;1.55;1.45;;;;;;;20.23;100;95602;;;;
2021/07/18 09:51:15;;;;;;;1.55;1.45;;;;;;;20.23;100;95602;;;;
2021/07/18 09:52:15;;;;;;;1.55;1.45;;;;;;;20.23;100;95602;;;;
2021/07/18 09:53:20;;;;;;;1.55;1.45;;;;;;;20.23;100;95602;;;;
2021/07/18 09:54:22;;;;;;;1.55;1.45;;;;;;;20.23;100;95602;;;;
2021/07/18 09:55:30;;;;;;;1.55;1.45;;;;;;;20.23;100;95602;;;;
2021/07/18 09:56:30;;;;;;;1.55;1.45;;;;;;;20.23;100;95602;;;;
2021/07/18 09:57:32;;;;;;;1.55;1.45;;;;;;;20.23;100;95602;;;;
2021/07/18 09:58:36;;;;;;;1.55;1.45;;;;;;;20.23;100;95602;;;;
2021/07/18 09:59:41;;;;;;;1.55;1.45;;;;;;;20.23;100;95602;;;;
2021/07/18 10:00:49;;;;;;;1.55;1.45;;;;;;;20.23;100;95602;;;;
2021/07/18 10:01:50;;;;;;;1.55;1.45;;;;;;;20.23;100;95602;;;;
2021/07/18 10:02:52;;;;;;;1.55;1.45;;;;;;;20.23;100;95602;;;;
2021/07/18 10:03:53;;;;;;;1.55;1.45;;;;;;;20.23;100;95602;;;;
2021/07/18 10:04:54;;;;;;;1.55;1.45;;;;;;;20.23;100;95602;;;;
2021/07/18 10:05:56;;;;;;;1.55;1.45;;;;;;;20.23;100;95602;;;;
2021/07/18 10:07:05;;;;;;;1.55;1.45;;;;;;;20.23;100;95602;;;;
2021/07/18 10:08:07;;;;;;;1.55;1.45;;;;;;;20.23;100;95602;;;;
2021/07/18 10:09:10;;;;;;;1.55;1.45;;;;;;;20.23;100;95602;;;;
2021/07/18 10:10:11;;;;;;;1.55;1.45;;;;;;;20.23;100;95602;;;;
2021/07/18 10:11:12;;;;;;;1.55;1.45;;;;;;;20.23;100;95602;;;;
2021/07/18 10:12:15;;;;;;;1.55;1.45;;;;;;;20.23;100;95602;;;;
2021/07/18 10:13:16;;;;;;;1.55;1.45;;;;;;;20.23;100;95602;;;;
2021/07/18 10:14:17;;;;;;;1.55;1.45;;;;;;;20.23;100;95602;;;;
2021/07/18 10:15:17;;;;;;;1.55;1.45;;;;;;;20.23;100;95602;;;;
2021/07/18 10:16:17;;;;;;;1.55;1.45;;;;;;;20.23;100;95602;;;;
2021/07/18 10:17:20;;;;;;;1.55;1.45;;;;;;;20.23;100;95602;;;;
2021/07/18 10:18:22;;;;;;;1.55;1.45;;;;;;;20.23;100;95602;;;;
2021/07/18 10:19:23;;;;;;;1.55;1.45;;;;;;;20.23;100;95602;;;;
2021/07/18 10:20:24;;;;;;;1.55;1.45;;;;;;;20.23;100;95602;;;;
2021/07/18 10:21:25;;;;;;;1.55;1.45;;;;;;;20.23;100;95602;;;;
2021/07/18 10:22:28;;;;;;;1.55;1.45;;;;;;;20.23;100;95602;;;;
2021/07/18 10:23:29;;;;;;;1.55;1.45;;;;;;;20.23;100;95602;;;;
2021/07/18 10:24:30;;;;;;;1.55;1.45;;;;;;;20.23;100;95602;;;;
2021/07/18 10:25:33;;;;;;;1.55;1.45;;;;;;;20.23;100;95602;;;;
2021/07/18 10:26:34;;;;;;;1.55;1.45;;;;;;;20.23;100;95602;;;;
2021/07/18 10:27:35;;;;;;;1.55;1.45;;;;;;;20.23;100;95602;;;;
2021/07/18 10:28:37;;;;;;;1.55;1.45;;;;;;;20.23;100;95602;;;;
2021/07/18 10:29:39;;;;;;;1.55;1.45;;;;;;;20.23;100;95602;;;;
2021/07/18 12:36:47;;;;;;;14.1;12.8;;;;;;;22.14;100;95578.52;;;;
2021/07/18 12:37:51;;;;;;;14.1;12.8;;;;;;;22.14;100;95578.52;;;;
2021/07/18 12:38:52;;;;;;;14.1;12.8;;;;;;;22.14;100;95578.52;;;;
2021/07/18 12:39:53;;;;;;;14.1;12.8;;;;;;;22.14;100;95578.52;;;;
2021/07/18 12:40:56;;;;;;;14.1;12.8;;;;;;;22.14;100;95578.52;;;;
2021/07/18 12:42:01;;;;;;;14.1;12.8;;;;;;;22.14;100;95578.52;;;;
2021/07/18 12:43:05;;;;;;;14.1;12.8;;;;;;;22.14;100;95578.52;;;;
2021/07/18 12:44:06;;;;;;;14.1;12.8;;;;;;;22.14;100;95578.52;;;;
2021/07/18 12:45:06;;;;;;;14.1;12.8;;;;;;;22.14;100;95578.52;;;;
2021/07/18 12:46:10;;;;;;;14.1;12.8;;;;;;;22.14;100;95578.52;;;;
2021/07/18 12:47:12;;;;;;;9.950002;9.049999;;;;;;;21.97;100;95570.4;;;;
2021/07/18 12:48:32;;;;;;;9.950002;9.049999;;;;;;;21.97;100;95570.4;;;;
2021/07/18 12:49:32;;;;;;;9.950002;9.049999;;;;;;;21.97;100;95570.4;;;;
2021/07/18 12:50:33;;;;;;;9.950002;9.049999;;;;;;;21.97;100;95570.4;;;;
2021/07/18 12:51:35;;;;;;;9.950002;9.049999;;;;;;;21.97;100;95570.4;;;;
2021/07/18 12:52:36;;;;;;;9.950002;9.049999;;;;;;;21.97;100;95570.4;;;;
2021/07/18 12:53:38;;;;;;;9.950002;9.049999;;;;;;;21.97;100;95570.4;;;;
2021/07/18 12:54:39;;;;;;;9.950002;9.049999;;;;;;;21.97;100;95570.4;;;;
2021/07/18 12:55:41;;;;;;;9.950002;9.049999;;;;;;;21.97;100;95570.4;;;;
2021/07/18 12:56:44;;;;;;;9.950002;9.049999;;;;;;;21.97;100;95570.4;;;;
2021/07/18 12:57:53;;;;;;;9.6;8.85;;;;;;;21.7;100;95557.06;;;;
2021/07/18 12:58:55;;;;;;;9.6;8.85;;;;;;;21.7;100;95557.06;;;;
2021/07/18 12:59:56;;;;;;;9.6;8.85;;;;;;;21.7;100;95557.06;;;;
2021/07/18 13:01:01;;;;;;;9.6;8.85;;;;;;;21.7;100;95557.06;;;;
2021/07/18 13:02:04;;;;;;;9.6;8.85;;;;;;;21.7;100;95557.06;;;;
2021/07/18 13:03:12;;;;;;;9.6;8.85;;;;;;;21.7;100;95557.06;;;;
2021/07/18 13:04:16;;;;;;;9.6;8.85;;;;;;;21.7;100;95557.06;;;;
2021/07/18 13:05:17;;;;;;;9.6;8.85;;;;;;;21.7;100;95557.06;;;;
2021/07/18 13:06:18;;;;;;;9.6;8.85;;;;;;;21.7;100;95557.06;;;;
2021/07/18 13:07:20;;;;;;;9.6;8.85;;;;;;;21.7;100;95557.06;;;;
2021/07/18 13:08:28;;;;;;;8.35;7.65;;;;;;;21.6;100;95548.85;;;;
2021/07/18 13:09:38;;;;;;;8.35;7.65;;;;;;;21.6;100;95548.85;;;;
2021/07/18 13:10:39;;;;;;;8.35;7.65;;;;;;;21.6;100;95548.85;;;;
2021/07/18 13:11:43;;;;;;;8.35;7.65;;;;;;;21.6;100;95548.85;;;;
2021/07/18 13:12:43;;;;;;;8.35;7.65;;;;;;;21.6;100;95548.85;;;;
2021/07/18 13:13:45;;;;;;;8.35;7.65;;;;;;;21.6;100;95548.85;;;;
2021/07/18 13:14:46;;;;;;;8.35;7.65;;;;;;;21.6;100;95548.85;;;;
2021/07/18 13:15:46;;;;;;;8.35;7.65;;;;;;;21.6;100;95548.85;;;;
2021/07/18 13:16:58;;;;;;;8.35;7.65;;;;;;;21.6;100;95548.85;;;;
2021/07/18 13:18:08;;;;;;;8.35;7.65;;;;;;;21.6;100;95548.85;;;;
2021/07/18 13:19:09;;;;;;;7.85;7.15;;;;;;;21.48;100;95550.42;;;;
2021/07/18 13:20:11;;;;;;;7.85;7.15;;;;;;;21.48;100;95550.42;;;;
2021/07/18 13:21:14;;;;;;;7.85;7.15;;;;;;;21.48;100;95550.42;;;;
2021/07/18 13:22:16;;;;;;;7.85;7.15;;;;;;;21.48;100;95550.42;;;;
2021/07/18 13:23:17;;;;;;;7.85;7.15;;;;;;;21.48;100;95550.42;;;;
2021/07/18 13:24:17;;;;;;;7.85;7.15;;;;;;;21.48;100;95550.42;;;;
2021/07/18 13:25:30;;;;;;;7.85;7.15;;;;;;;21.48;100;95550.42;;;;
2021/07/18 13:26:33;;;;;;;7.85;7.15;;;;;;;21.48;100;95550.42;;;;
2021/07/18 13:27:35;;;;;;;7.85;7.15;;;;;;;21.48;100;95550.42;;;;
2021/07/18 13:28:37;;;;;;;7.85;7.15;;;;;;;21.48;100;95550.42;;;;
2021/07/18 13:29:39;;;;;;;7.400001;6.799999;;;;;;;21.54;100;95547.42;;;;
2021/07/18 13:30:41;;;;;;;7.400001;6.799999;;;;;;;21.54;100;95547.42;;;;
2021/07/18 13:31:41;;;;;;;7.400001;6.799999;;;;;;;21.54;100;95547.42;;;;
2021/07/18 13:32:44;;;;;;;7.400001;6.799999;;;;;;;21.54;100;95547.42;;;;
2021/07/18 13:33:45;;;;;;;7.400001;6.799999;;;;;;;21.54;100;95547.42;;;;
2021/07/18 13:34:45;;;;;;;7.400001;6.799999;;;;;;;21.54;100;95547.42;;;;
2021/07/18 13:35:58;;;;;;;7.400001;6.799999;;;;;;;21.54;100;95547.42;;;;
2021/07/18 13:37:05;;;;;;;7.400001;6.799999;;;;;;;21.54;100;95547.42;;;;
2021/07/18 13:38:06;;;;;;;7.400001;6.799999;;;;;;;21.54;100;95547.42;;;;
2021/07/18 13:39:07;;;;;;;7.400001;6.799999;;;;;;;21.54;100;95547.42;;;;
2021/07/18 13:40:10;;;;;;;7.400001;6.799999;;;;;;;21.54;100;95547.42;;;;
2021/07/18 13:41:24;;;;;;;6.299999;5.85;;;;;;;21.67;100;95534.31;;;;
2021/07/18 13:42:25;;;;;;;6.299999;5.85;;;;;;;21.67;100;95534.31;;;;
2021/07/18 13:43:35;;;;;;;6.299999;5.85;;;;;;;21.67;100;95534.31;;;;
2021/07/18 13:44:35;;;;;;;6.299999;5.85;;;;;;;21.67;100;95534.31;;;;
2021/07/18 13:45:38;;;;;;;6.299999;5.85;;;;;;;21.67;100;95534.31;;;;
2021/07/18 13:46:41;;;;;;;6.299999;5.85;;;;;;;21.67;100;95534.31;;;;
2021/07/18 13:47:42;;;;;;;6.299999;5.85;;;;;;;21.67;100;95534.31;;;;
2021/07/18 13:48:42;;;;;;;6.299999;5.85;;;;;;;21.67;100;95534.31;;;;
2021/07/18 13:49:42;;;;;;;6.299999;5.85;;;;;;;21.67;100;95534.31;;;;
2021/07/18 13:50:43;;;;;;;6.299999;5.85;;;;;;;21.67;100;95534.31;;;;
2021/07/18 13:51:44;;;;;;;7.05;6.45;;;;;;;21.74;100;95529.66;;;;
2021/07/18 13:52:52;;;;;;;7.05;6.45;;;;;;;21.74;100;95529.66;;;;
2021/07/18 13:53:52;;;;;;;7.05;6.45;;;;;;;21.74;100;95529.66;;;;
2021/07/18 13:54:53;;;;;;;7.05;6.45;;;;;;;21.74;100;95529.66;;;;
2021/07/18 13:55:53;;;;;;;7.05;6.45;;;;;;;21.74;100;95529.66;;;;
2021/07/18 13:56:54;;;;;;;7.05;6.45;;;;;;;21.74;100;95529.66;;;;
2021/07/18 13:57:55;;;;;;;7.05;6.45;;;;;;;21.74;100;95529.66;;;;
2021/07/18 13:58:55;;;;;;;7.05;6.45;;;;;;;21.74;100;95529.66;;;;
2021/07/18 13:59:56;;;;;;;7.05;6.45;;;;;;;21.74;100;95529.66;;;;
2021/07/18 14:00:56;;;;;;;7.05;6.45;;;;;;;21.74;100;95529.66;;;;
2021/07/18 14:01:57;;;;;;;6.5;6;;;;;;;21.82;100;95534.52;;;;
2021/07/18 14:02:58;;;;;;;6.5;6;;;;;;;21.82;100;95534.52;;;;
2021/07/18 14:03:59;;;;;;;6.5;6;;;;;;;21.82;100;95534.52;;;;
2021/07/18 14:05:00;;;;;;;6.5;6;;;;;;;21.82;100;95534.52;;;;
2021/07/18 14:06:01;;;;;;;6.5;6;;;;;;;21.82;100;95534.52;;;;
2021/07/18 14:07:01;;;;;;;6.5;6;;;;;;;21.82;100;95534.52;;;;
2021/07/18 14:08:02;;;;;;;6.5;6;;;;;;;21.82;100;95534.52;;;;
2021/07/18 14:09:02;;;;;;;6.5;6;;;;;;;21.82;100;95534.52;;;;
2021/07/18 14:10:04;;;;;;;6.5;6;;;;;;;21.82;100;95534.52;;;;
2021/07/18 14:11:08;;;;;;;6.5;6;;;;;;;21.82;100;95534.52;;;;
2021/07/18 14:12:08;;;;;;;6.5;6;;;;;;;21.82;100;95534.52;;;;
2021/07/18 14:13:09;;;;;;;6.5;6;;;;;;;21.82;100;95534.52;;;;
2021/07/18 14:14:10;;;;;;;6.5;6;;;;;;;21.82;100;95534.52;;;;
2021/07/18 14:15:11;;;;;;;6.5;6;;;;;;;21.82;100;95534.52;;;;
2021/07/18 14:16:14;;;;;;;6.5;6;;;;;;;21.82;100;95534.52;;;;
2021/07/18 14:17:14;;;;;;;6.5;6;;;;;;;21.82;100;95534.52;;;;
2021/07/18 14:18:15;;;;;;;6.5;6;;;;;;;21.82;100;95534.52;;;;
2021/07/18 14:19:16;;;;;;;6.5;6;;;;;;;21.82;100;95534.52;;;;
2021/07/18 14:20:16;;;;;;;6.5;6;;;;;;;21.82;100;95534.52;;;;
2021/07/18 14:21:20;;;;;;;6.5;6;;;;;;;21.82;100;95534.52;;;;
2021/07/18 14:22:20;;;;;;;6.5;6;;;;;;;21.82;100;95534.52;;;;
2021/07/18 14:23:21;;;;;;;6.45;5.95;;;;;;;21.64;100;95529.83;;;;
2021/07/18 14:24:21;;;;;;;6.45;5.95;;;;;;;21.64;100;95529.83;;;;
2021/07/18 14:25:22;;;;;;;6.45;5.95;;;;;;;21.64;100;95529.83;;;;
2021/07/18 14:26:24;;;;;;;6.45;5.95;;;;;;;21.64;100;95529.83;;;;
2021/07/18 14:27:24;;;;;;;6.45;5.95;;;;;;;21.64;100;95529.83;;;;
2021/07/18 14:28:25;;;;;;;6.45;5.95;;;;;;;21.64;100;95529.83;;;;
2021/07/18 14:29:26;;;;;;;6.45;5.95;;;;;;;21.64;100;95529.83;;;;
2021/07/18 14:30:27;;;;;;;6.45;5.95;;;;;;;21.64;100;95529.83;;;;
2021/07/18 14:31:29;;;;;;;6.45;5.95;;;;;;;21.64;100;95529.83;;;;
2021/07/18 14:32:29;;;;;;;6.45;5.95;;;;;;;21.64;100;95529.83;;;;
2021/07/18 14:33:30;;;;;;;6.45;5.95;;;;;;;21.64;100;95529.83;;;;
2021/07/18 14:34:30;;;;;;;6.7;6.2;;;;;;;21.64;100;95519.62;;;;
2021/07/18 14:35:31;;;;;;;6.7;6.2;;;;;;;21.64;100;95519.62;;;;
2021/07/18 14:36:32;;;;;;;6.7;6.2;;;;;;;21.64;100;95519.62;;;;
2021/07/18 14:37:32;;;;;;;6.7;6.2;;;;;;;21.64;100;95519.62;;;;
2021/07/18 14:38:34;;;;;;;6.7;6.2;;;;;;;21.64;100;95519.62;;;;
2021/07/18 14:39:34;;;;;;;6.7;6.2;;;;;;;21.64;100;95519.62;;;;
2021/07/18 14:40:36;;;;;;;6.7;6.2;;;;;;;21.64;100;95519.62;;;;
2021/07/18 14:41:37;;;;;;;6.7;6.2;;;;;;;21.64;100;95519.62;;;;
2021/07/18 14:42:37;;;;;;;6.7;6.2;;;;;;;21.64;100;95519.62;;;;
2021/07/18 14:43:39;;;;;;;6.7;6.2;;;;;;;21.64;100;95519.62;;;;
2021/07/18 14:44:39;;;;;;;6.699999;6.199999;;;;;;;21.64;100;95508.23;;;;
2021/07/18 14:45:41;;;;;;;6.699999;6.199999;;;;;;;21.64;100;95508.23;;;;
2021/07/18 14:46:42;;;;;;;6.699999;6.199999;;;;;;;21.64;100;95508.23;;;;
2021/07/18 14:47:44;;;;;;;6.699999;6.199999;;;;;;;21.64;100;95508.23;;;;
2021/07/18 14:48:46;;;;;;;6.699999;6.199999;;;;;;;21.64;100;95508.23;;;;
2021/07/18 14:49:46;;;;;;;6.699999;6.199999;;;;;;;21.64;100;95508.23;;;;
2021/07/18 14:50:47;;;;;;;6.699999;6.199999;;;;;;;21.64;100;95508.23;;;;
2021/07/18 14:51:47;;;;;;;6.699999;6.199999;;;;;;;21.64;100;95508.23;;;;
2021/07/18 14:52:48;;;;;;;6.699999;6.199999;;;;;;;21.64;100;95508.23;;;;
2021/07/18 14:53:48;;;;;;;6.699999;6.199999;;;;;;;21.64;100;95508.23;;;;
2021/07/18 14:54:49;;;;;;;6.699999;6.199999;;;;;;;21.64;100;95508.23;;;;
2021/07/18 14:55:49;;;;;;;6.75;6.25;;;;;;;21.6;100;95503.5;;;;
2021/07/18 14:56:50;;;;;;;6.75;6.25;;;;;;;21.6;100;95503.5;;;;
2021/07/18 14:57:50;;;;;;;6.75;6.25;;;;;;;21.6;100;95503.5;;;;
2021/07/18 14:58:51;;;;;;;6.75;6.25;;;;;;;21.6;100;95503.5;;;;
2021/07/18 14:59:51;;;;;;;6.75;6.25;;;;;;;21.6;100;95503.5;;;;
2021/07/18 15:00:52;;;;;;;6.75;6.25;;;;;;;21.6;100;95503.5;;;;
2021/07/18 15:01:52;;;;;;;6.75;6.25;;;;;;;21.6;100;95503.5;;;;
2021/07/18 15:02:54;;;;;;;6.75;6.25;;;;;;;21.6;100;95503.5;;;;
2021/07/18 15:03:57;;;;;;;6.75;6.25;;;;;;;21.6;100;95503.5;;;;
2021/07/18 15:04:58;;;;;;;6.75;6.25;;;;;;;21.6;100;95503.5;;;;
2021/07/18 15:05:58;;;;;;;6.75;6.25;;;;;;;21.57;100;95502.29;;;;
2021/07/18 15:06:59;;;;;;;6.75;6.25;;;;;;;21.57;100;95502.29;;;;
2021/07/18 15:07:59;;;;;;;6.75;6.25;;;;;;;21.57;100;95502.29;;;;
2021/07/18 15:09:00;;;;;;;6.75;6.25;;;;;;;21.57;100;95502.29;;;;
2021/07/18 15:10:00;;;;;;;6.75;6.25;;;;;;;21.57;100;95502.29;;;;
2021/07/18 15:11:00;;;;;;;6.75;6.25;;;;;;;21.57;100;95502.29;;;;
2021/07/18 15:12:01;;;;;;;6.75;6.25;;;;;;;21.57;100;95502.29;;;;
2021/07/18 15:13:02;;;;;;;6.75;6.25;;;;;;;21.57;100;95502.29;;;;
2021/07/18 15:14:03;;;;;;;6.75;6.25;;;;;;;21.57;100;95502.29;;;;
2021/07/18 15:15:04;;;;;;;6.75;6.25;;;;;;;21.57;100;95502.29;;;;
2021/07/18 15:16:07;;;;;;;6.75;6.25;;;;;;;21.57;100;95502.29;;;;
2021/07/18 15:17:08;;;;;;;6.95;6.4;;;;;;;21.55;100;95495.9;;;;
2021/07/18 15:18:08;;;;;;;6.95;6.4;;;;;;;21.55;100;95495.9;;;;
2021/07/18 15:19:09;;;;;;;6.95;6.4;;;;;;;21.55;100;95495.9;;;;
2021/07/18 15:20:09;;;;;;;6.95;6.4;;;;;;;21.55;100;95495.9;;;;
2021/07/18 15:21:12;;;;;;;6.95;6.4;;;;;;;21.55;100;95495.9;;;;
2021/07/18 15:22:13;;;;;;;6.95;6.4;;;;;;;21.55;100;95495.9;;;;
2021/07/18 15:23:14;;;;;;;6.95;6.4;;;;;;;21.55;100;95495.9;;;;
2021/07/18 15:24:14;;;;;;;6.95;6.4;;;;;;;21.55;100;95495.9;;;;
2021/07/18 15:25:15;;;;;;;6.95;6.4;;;;;;;21.55;100;95495.9;;;;
2021/07/18 15:26:16;;;;;;;6.95;6.4;;;;;;;21.55;100;95495.9;;;;
2021/07/18 15:27:17;;;;;;;6.699999;6.15;;;;;;;21.54;100;95498.78;;;;
2021/07/18 15:28:17;;;;;;;6.699999;6.15;;;;;;;21.54;100;95498.78;;;;
2021/07/18 15:29:18;;;;;;;6.699999;6.15;;;;;;;21.54;100;95498.78;;;;
2021/07/18 15:30:19;;;;;;;6.699999;6.15;;;;;;;21.54;100;95498.78;;;;
2021/07/18 15:31:19;;;;;;;6.699999;6.15;;;;;;;21.54;100;95498.78;;;;
2021/07/18 15:32:20;;;;;;;6.699999;6.15;;;;;;;21.54;100;95498.78;;;;
2021/07/18 15:33:20;;;;;;;6.699999;6.15;;;;;;;21.54;100;95498.78;;;;
2021/07/18 15:34:21;;;;;;;6.699999;6.15;;;;;;;21.54;100;95498.78;;;;
2021/07/18 15:35:22;;;;;;;6.699999;6.15;;;;;;;21.54;100;95498.78;;;;
2021/07/18 15:36:23;;;;;;;6.699999;6.15;;;;;;;21.54;100;95498.78;;;;
2021/07/18 15:37:23;;;;;;;6.699999;6.15;;;;;;;21.54;100;95498.78;;;;
2021/07/18 15:38:24;;;;;;;6.599999;6.099999;;;;;;;21.55;100;95491.78;;;;
2021/07/18 15:39:25;;;;;;;6.599999;6.099999;;;;;;;21.55;100;95491.78;;;;
2021/07/18 15:40:25;;;;;;;6.599999;6.099999;;;;;;;21.55;100;95491.78;;;;
2021/07/18 15:41:28;;;;;;;6.599999;6.099999;;;;;;;21.55;100;95491.78;;;;
2021/07/18 15:42:29;;;;;;;6.599999;6.099999;;;;;;;21.55;100;95491.78;;;;
2021/07/18 15:43:29;;;;;;;6.599999;6.099999;;;;;;;21.55;100;95491.78;;;;
2021/07/18 15:44:30;;;;;;;6.599999;6.099999;;;;;;;21.55;100;95491.78;;;;
2021/07/18 15:45:31;;;;;;;6.599999;6.099999;;;;;;;21.55;100;95491.78;;;;
2021/07/18 15:46:31;;;;;;;6.599999;6.099999;;;;;;;21.55;100;95491.78;;;;
2021/07/18 15:47:33;;;;;;;6.599999;6.099999;;;;;;;21.55;100;95491.78;;;;
2021/07/18 15:48:33;;;;;;;6.849999;6.349999;;;;;;;21.68;100;95483.7;;;;
2021/07/18 15:49:34;;;;;;;6.849999;6.349999;;;;;;;21.68;100;95483.7;;;;
2021/07/18 15:50:34;;;;;;;6.849999;6.349999;;;;;;;21.68;100;95483.7;;;;
2021/07/18 15:51:35;;;;;;;6.849999;6.349999;;;;;;;21.68;100;95483.7;;;;
2021/07/18 15:52:36;;;;;;;6.849999;6.349999;;;;;;;21.68;100;95483.7;;;;
2021/07/18 15:53:37;;;;;;;6.849999;6.349999;;;;;;;21.68;100;95483.7;;;;
2021/07/18 15:54:37;;;;;;;6.849999;6.349999;;;;;;;21.68;100;95483.7;;;;
2021/07/18 15:55:38;;;;;;;6.849999;6.349999;;;;;;;21.68;100;95483.7;;;;
2021/07/18 15:56:39;;;;;;;6.849999;6.349999;;;;;;;21.68;100;95483.7;;;;
2021/07/18 15:57:40;;;;;;;6.849999;6.349999;;;;;;;21.68;100;95483.7;;;;
2021/07/18 15:58:40;;;;;;;6.849999;6.349999;;;;;;;21.68;100;95483.7;;;;
2021/07/18 15:59:41;;;;;;;6.6;6.1;;;;;;;21.89;100;95483.67;;;;
2021/07/18 16:00:41;;;;;;;6.6;6.1;;;;;;;21.89;100;95483.67;;;;
2021/07/18 16:01:42;;;;;;;6.6;6.1;;;;;;;21.89;100;95483.67;;;;
2021/07/18 16:02:42;;;;;;;6.6;6.1;;;;;;;21.89;100;95483.67;;;;
2021/07/18 16:03:43;;;;;;;6.6;6.1;;;;;;;21.89;100;95483.67;;;;
2021/07/18 16:04:44;;;;;;;6.6;6.1;;;;;;;21.89;100;95483.67;;;;
2021/07/18 16:05:44;;;;;;;6.6;6.1;;;;;;;21.89;100;95483.67;;;;
2021/07/18 16:06:45;;;;;;;6.6;6.1;;;;;;;21.89;100;95483.67;;;;
2021/07/18 16:07:46;;;;;;;6.6;6.1;;;;;;;21.89;100;95483.67;;;;
2021/07/18 16:08:46;;;;;;;6.6;6.1;;;;;;;21.89;100;95483.67;;;;
2021/07/18 16:09:47;;;;;;;6.3;5.849999;;;;;;;21.99;100;95491.31;;;;
2021/07/18 16:10:47;;;;;;;6.3;5.849999;;;;;;;21.99;100;95491.31;;;;
2021/07/18 16:11:48;;;;;;;6.3;5.849999;;;;;;;21.99;100;95491.31;;;;
2021/07/18 16:12:49;;;;;;;6.3;5.849999;;;;;;;21.99;100;95491.31;;;;
2021/07/18 16:13:49;;;;;;;6.3;5.849999;;;;;;;21.99;100;95491.31;;;;
2021/07/18 16:14:50;;;;;;;6.3;5.849999;;;;;;;21.99;100;95491.31;;;;
2021/07/18 16:15:50;;;;;;;6.3;5.849999;;;;;;;21.99;100;95491.31;;;;
2021/07/18 16:16:51;;;;;;;6.3;5.849999;;;;;;;21.99;100;95491.31;;;;
2021/07/18 16:17:51;;;;;;;6.3;5.849999;;;;;;;21.99;100;95491.31;;;;
2021/07/18 16:18:52;;;;;;;6.3;5.849999;;;;;;;21.99;100;95491.31;;;;
2021/07/18 16:19:56;;;;;;;6.3;5.849999;;;;;;;21.99;100;95491.31;;;;
2021/07/18 16:20:57;;;;;;;6.3;5.849999;;;;;;;21.99;100;95491.31;;;;
2021/07/18 16:21:58;;;;;;;6.3;5.849999;;;;;;;21.99;100;95491.31;;;;
2021/07/18 16:22:58;;;;;;;6.3;5.849999;;;;;;;21.99;100;95491.31;;;;
2021/07/18 16:23:59;;;;;;;6.3;5.849999;;;;;;;21.99;100;95491.31;;;;
2021/07/18 16:24:59;;;;;;;6.3;5.849999;;;;;;;21.99;100;95491.31;;;;
2021/07/18 16:26:00;;;;;;;6.3;5.849999;;;;;;;21.99;100;95491.31;;;;
2021/07/18 16:27:01;;;;;;;6.3;5.849999;;;;;;;21.99;100;95491.31;;;;
2021/07/18 16:28:01;;;;;;;6.3;5.849999;;;;;;;21.99;100;95491.31;;;;
2021/07/18 16:29:02;;;;;;;6.3;5.849999;;;;;;;21.99;100;95491.31;;;;
2021/07/18 16:30:04;;;;;;;6.3;5.849999;;;;;;;21.99;100;95491.31;;;;
2021/07/18 16:31:07;;;;;;;6.3;5.849999;;;;;;;21.99;100;95491.31;;;;
2021/07/18 16:32:08;;;;;;;6.3;5.849999;;;;;;;21.99;100;95491.31;;;;
2021/07/18 16:33:08;;;;;;;6.3;5.849999;;;;;;;21.99;100;95491.31;;;;
2021/07/18 16:34:10;;;;;;;6.3;5.849999;;;;;;;21.99;100;95491.31;;;;
2021/07/18 16:35:15;;;;;;;6.3;5.849999;;;;;;;21.99;100;95491.31;;;;
2021/07/18 16:36:15;;;;;;;6.3;5.849999;;;;;;;21.99;100;95491.31;;;;
2021/07/18 16:37:16;;;;;;;6.3;5.849999;;;;;;;21.99;100;95491.31;;;;
2021/07/18 16:38:19;;;;;;;6.3;5.849999;;;;;;;21.99;100;95491.31;;;;
2021/07/18 16:39:20;;;;;;;6.3;5.849999;;;;;;;21.99;100;95491.31;;;;
2021/07/18 16:40:21;;;;;;;6.3;5.849999;;;;;;;21.99;100;95491.31;;;;
2021/07/18 16:41:21;;;;;;;6.3;5.849999;;;;;;;21.99;100;95491.31;;;;
2021/07/18 16:42:22;;;;;;;6.3;5.849999;;;;;;;21.99;100;95491.31;;;;
2021/07/18 16:43:22;;;;;;;6.3;5.849999;;;;;;;21.99;100;95491.31;;;;
2021/07/18 16:44:23;;;;;;;6.3;5.849999;;;;;;;21.99;100;95491.31;;;;
2021/07/18 16:45:24;;;;;;;6.3;5.849999;;;;;;;21.99;100;95491.31;;;;
2021/07/18 16:46:25;;;;;;;6.3;5.849999;;;;;;;21.99;100;95491.31;;;;
2021/07/18 16:47:25;;;;;;;6.3;5.849999;;;;;;;21.99;100;95491.31;;;;
2021/07/18 16:48:26;;;;;;;6.3;5.849999;;;;;;;21.99;100;95491.31;;;;
2021/07/18 16:49:26;;;;;;;6.3;5.849999;;;;;;;21.99;100;95491.31;;;;
2021/07/18 16:50:27;;;;;;;6.3;5.849999;;;;;;;21.99;100;95491.31;;;;
2021/07/18 16:51:27;;;;;;;6.3;5.849999;;;;;;;21.99;100;95491.31;;;;
2021/07/18 16:52:28;;;;;;;6.3;5.849999;;;;;;;21.99;100;95491.31;;;;
2021/07/18 16:53:29;;;;;;;6.3;5.849999;;;;;;;21.99;100;95491.31;;;;
2021/07/18 16:54:29;;;;;;;6.3;5.849999;;;;;;;21.99;100;95491.31;;;;
